createdAt,value
2022-09-11T00:01:14.389Z,18.95
2022-09-11T00:03:45.059Z,18.95
2022-09-11T00:06:27.421Z,18.95
2022-09-11T00:09:00.689Z,18.94
2022-09-11T00:11:30.505Z,18.94
2022-09-11T00:13:59.169Z,18.93
2022-09-11T00:16:28.796Z,18.91
2022-09-11T00:19:00.149Z,18.87
2022-09-11T00:21:29.435Z,18.84
2022-09-11T00:23:58.127Z,18.82
2022-09-11T00:26:26.407Z,18.81
2022-09-11T00:28:55.313Z,18.79
2022-09-11T00:31:25.796Z,18.77
2022-09-11T00:33:53.968Z,18.71
2022-09-11T00:36:24.509Z,18.66
2022-09-11T00:38:52.589Z,18.61
2022-09-11T00:41:22.632Z,18.56
2022-09-11T00:44:00.675Z,18.50
2022-09-11T00:46:35.631Z,18.43
2022-09-11T00:49:07.948Z,18.39
2022-09-11T00:51:41.106Z,18.36
2022-09-11T00:54:13.573Z,18.32
2022-09-11T00:56:44.337Z,18.27
2022-09-11T00:59:13.569Z,18.25
2022-09-11T01:01:42.003Z,18.21
2022-09-11T01:04:10.566Z,18.19
2022-09-11T01:06:40.763Z,18.16
2022-09-11T01:09:08.673Z,18.11
2022-09-11T01:11:54.639Z,18.04
2022-09-11T01:14:34.664Z,18.01
2022-09-11T01:17:15.354Z,17.98
2022-09-11T01:20:05.596Z,17.91
2022-09-11T01:23:03.024Z,17.86
2022-09-11T01:25:45.205Z,17.85
2022-09-11T01:28:17.786Z,17.80
2022-09-11T01:30:51.153Z,17.75
2022-09-11T01:33:28.287Z,17.70
2022-09-11T01:36:03.738Z,17.65
2022-09-11T01:38:37.797Z,17.63
2022-09-11T01:41:09.783Z,17.57
2022-09-11T01:43:43.283Z,17.54
2022-09-11T01:46:17.334Z,17.53
2022-09-11T01:48:51.049Z,17.53
2022-09-11T01:51:24.240Z,17.52
2022-09-11T01:53:54.819Z,17.57
2022-09-11T01:56:28.011Z,17.57
2022-09-11T01:59:01.857Z,17.56
2022-09-11T02:01:34.084Z,17.63
2022-09-11T02:04:07.820Z,17.65
2022-09-11T02:06:40.851Z,17.67
2022-09-11T02:09:12.326Z,17.67
2022-09-11T02:11:42.666Z,17.70
2022-09-11T02:14:21.217Z,17.72
2022-09-11T02:16:51.934Z,17.68
2022-09-11T02:19:21.344Z,17.71
2022-09-11T02:21:51.018Z,17.75
2022-09-11T02:24:20.876Z,17.80
2022-09-11T02:26:52.672Z,17.80
2022-09-11T02:29:22.692Z,17.77
2022-09-11T02:31:52.205Z,17.77
2022-09-11T02:34:27.077Z,17.77
2022-09-11T02:37:09.332Z,17.78
2022-09-11T02:40:01.265Z,17.81
2022-09-11T02:42:39.537Z,17.82
2022-09-11T02:45:20.044Z,17.82
2022-09-11T02:47:59.107Z,17.81
2022-09-11T02:50:35.201Z,17.80
2022-09-11T02:53:08.498Z,17.77
2022-09-11T02:55:50.942Z,17.75
2022-09-11T02:58:26.897Z,17.69
2022-09-11T03:00:58.820Z,17.65
2022-09-11T03:03:26.913Z,17.55
2022-09-11T03:05:55.076Z,17.50
2022-09-11T03:08:22.924Z,17.47
2022-09-11T03:10:50.789Z,17.47
2022-09-11T03:13:18.556Z,17.46
2022-09-11T03:15:46.580Z,17.50
2022-09-11T03:18:15.856Z,17.50
2022-09-11T03:20:47.019Z,17.49
2022-09-11T03:23:15.095Z,17.47
2022-09-11T03:25:42.888Z,17.47
2022-09-11T03:28:10.756Z,17.48
2022-09-11T03:30:38.615Z,17.45
2022-09-11T03:33:06.468Z,17.45
2022-09-11T03:35:36.509Z,17.46
2022-09-11T03:38:04.310Z,17.45
2022-09-11T03:40:32.104Z,17.42
2022-09-11T03:43:00.028Z,17.38
2022-09-11T03:45:27.994Z,17.38
2022-09-11T03:47:55.819Z,17.39
2022-09-11T03:50:23.851Z,17.42
2022-09-11T03:52:53.262Z,17.44
2022-09-11T03:55:23.076Z,17.42
2022-09-11T03:57:51.166Z,17.34
2022-09-11T04:00:19.115Z,17.32
2022-09-11T04:02:46.873Z,17.30
2022-09-11T04:05:14.861Z,17.32
2022-09-11T04:07:42.647Z,17.33
2022-09-11T04:10:12.333Z,17.39
2022-09-11T04:12:40.143Z,17.43
2022-09-11T04:15:08.906Z,17.46
2022-09-11T04:17:37.058Z,17.48
2022-09-11T04:20:05.294Z,17.53
2022-09-11T04:22:33.082Z,17.55
2022-09-11T04:25:02.281Z,17.60
2022-09-11T04:27:32.035Z,17.58
2022-09-11T04:29:59.940Z,17.57
2022-09-11T04:32:28.381Z,17.63
2022-09-11T04:34:56.377Z,17.69
2022-09-11T04:37:24.134Z,17.76
2022-09-11T04:39:51.904Z,17.80
2022-09-11T04:42:19.817Z,17.84
2022-09-11T04:44:49.047Z,17.88
2022-09-11T04:47:17.261Z,17.89
2022-09-11T04:49:46.825Z,17.88
2022-09-11T04:52:15.263Z,17.88
2022-09-11T04:54:43.306Z,17.88
2022-09-11T04:57:11.008Z,17.88
2022-09-11T04:59:38.997Z,17.88
2022-09-11T05:02:08.456Z,17.88
2022-09-11T05:04:36.473Z,17.89
2022-09-11T05:07:04.674Z,17.90
2022-09-11T05:09:32.895Z,17.87
2022-09-11T05:12:02.150Z,17.83
2022-09-11T05:14:30.101Z,17.83
2022-09-11T05:16:57.894Z,17.84
2022-09-11T05:19:27.154Z,17.85
2022-09-11T05:21:55.046Z,17.86
2022-09-11T05:24:22.815Z,17.87
2022-09-11T05:26:50.583Z,17.86
2022-09-11T05:29:19.655Z,17.82
2022-09-11T05:31:47.707Z,17.79
2022-09-11T05:34:15.557Z,17.74
2022-09-11T05:36:46.052Z,17.73
2022-09-11T05:39:13.859Z,17.67
2022-09-11T05:41:41.728Z,17.68
2022-09-11T05:44:09.456Z,17.68
2022-09-11T05:46:37.561Z,17.64
2022-09-11T05:49:05.662Z,17.63
2022-09-11T05:51:35.799Z,17.58
2022-09-11T05:54:05.461Z,17.60
2022-09-11T05:56:33.228Z,17.65
2022-09-11T05:59:02.337Z,17.66
2022-09-11T06:01:31.124Z,17.69
2022-09-11T06:03:59.218Z,17.69
2022-09-11T06:06:27.642Z,17.71
2022-09-11T06:08:55.985Z,17.74
2022-09-11T06:11:25.203Z,17.79
2022-09-11T06:13:53.143Z,17.84
2022-09-11T06:16:23.521Z,17.91
2022-09-11T06:18:53.215Z,17.98
2022-09-11T06:21:22.477Z,18.03
2022-09-11T06:23:51.984Z,18.06
2022-09-11T06:26:22.449Z,18.09
2022-09-11T06:28:52.776Z,18.09
2022-09-11T06:31:22.505Z,18.09
2022-09-11T06:33:51.068Z,18.12
2022-09-11T06:36:20.273Z,18.16
2022-09-11T06:38:53.277Z,18.21
2022-09-11T06:41:21.007Z,18.25
2022-09-11T06:43:49.269Z,18.29
2022-09-11T06:46:20.031Z,18.28
2022-09-11T06:48:49.653Z,18.34
2022-09-11T06:51:19.439Z,18.40
2022-09-11T06:53:48.642Z,18.42
2022-09-11T06:56:18.853Z,18.41
2022-09-11T06:58:47.086Z,18.40
2022-09-11T07:01:16.567Z,18.31
2022-09-11T07:03:47.373Z,18.27
2022-09-11T07:06:16.562Z,18.24
2022-09-11T07:08:44.679Z,18.29
2022-09-11T07:11:13.278Z,18.33
2022-09-11T07:13:42.068Z,18.39
2022-09-11T07:16:12.691Z,18.42
2022-09-11T07:18:42.266Z,18.36
2022-09-11T07:21:14.066Z,18.36
2022-09-11T07:23:43.039Z,18.39
2022-09-11T07:26:13.679Z,18.43
2022-09-11T07:28:41.899Z,18.42
2022-09-11T07:31:11.692Z,18.45
2022-09-11T07:33:40.071Z,18.48
2022-09-11T07:36:12.137Z,18.52
2022-09-11T07:38:42.759Z,18.56
2022-09-11T07:41:11.706Z,18.58
2022-09-11T07:43:40.796Z,18.52
2022-09-11T07:46:11.350Z,18.50
2022-09-11T07:48:40.852Z,18.50
2022-09-11T07:51:11.572Z,18.53
2022-09-11T07:53:42.723Z,18.54
2022-09-11T07:56:13.055Z,18.53
2022-09-11T07:58:42.738Z,18.53
2022-09-11T08:01:12.715Z,18.51
2022-09-11T08:03:40.626Z,18.47
2022-09-11T08:06:10.705Z,18.45
2022-09-11T08:08:38.641Z,18.42
2022-09-11T08:11:10.602Z,18.45
2022-09-11T08:13:39.031Z,18.50
2022-09-11T08:16:08.057Z,18.55
2022-09-11T08:18:37.190Z,18.51
2022-09-11T08:21:12.574Z,18.47
2022-09-11T08:23:42.700Z,18.51
2022-09-11T08:26:14.245Z,18.50
2022-09-11T08:28:46.893Z,18.53
2022-09-11T08:31:14.994Z,18.55
2022-09-11T08:33:42.984Z,18.55
2022-09-11T08:36:14.673Z,18.62
2022-09-11T08:38:42.905Z,18.60
2022-09-11T08:41:22.311Z,18.66
2022-09-11T08:43:56.725Z,18.66
2022-09-11T08:46:27.951Z,18.71
2022-09-11T08:49:03.531Z,18.78
2022-09-11T08:51:32.348Z,18.74
2022-09-11T08:54:02.415Z,18.68
2022-09-11T08:56:33.709Z,18.63
2022-09-11T08:59:20.321Z,18.53
2022-09-11T09:02:00.692Z,18.56
2022-09-11T09:04:42.052Z,18.59
2022-09-11T09:07:20.108Z,18.51
2022-09-11T09:10:00.607Z,18.47
2022-09-11T09:12:39.846Z,18.37
2022-09-11T09:15:20.323Z,18.43
2022-09-11T09:17:53.885Z,18.45
2022-09-11T09:20:27.171Z,18.45
2022-09-11T09:23:00.174Z,18.50
2022-09-11T09:25:28.869Z,18.54
2022-09-11T09:28:04.863Z,18.59
2022-09-11T09:30:41.856Z,18.66
2022-09-11T09:33:25.882Z,18.67
2022-09-11T09:35:54.389Z,18.72
2022-09-11T09:38:26.851Z,18.72
2022-09-11T09:41:05.234Z,18.72
2022-09-11T09:43:48.330Z,18.73
2022-09-11T09:46:24.989Z,18.76
2022-09-11T09:48:53.000Z,18.76
2022-09-11T09:51:20.747Z,18.76
2022-09-11T09:53:53.046Z,18.80
2022-09-11T09:56:23.751Z,18.83
2022-09-11T09:59:01.131Z,18.80
2022-09-11T10:01:45.406Z,18.79
2022-09-11T10:04:17.245Z,18.88
2022-09-11T10:06:46.564Z,18.84
2022-09-11T10:09:24.568Z,18.76
2022-09-11T10:11:55.934Z,18.81
2022-09-11T10:14:49.770Z,18.89
2022-09-11T10:17:21.325Z,19.04
2022-09-11T10:19:49.200Z,19.15
2022-09-11T10:22:29.074Z,19.21
2022-09-11T10:25:12.449Z,19.20
2022-09-11T10:27:46.375Z,19.30
2022-09-11T10:30:36.420Z,19.35
2022-09-11T10:33:08.205Z,19.46
2022-09-11T10:35:37.855Z,19.55
2022-09-11T10:38:18.936Z,19.55
2022-09-11T10:41:15.935Z,19.52
2022-09-11T10:43:48.688Z,19.63
2022-09-11T10:46:26.381Z,19.65
2022-09-11T10:48:58.391Z,19.76
2022-09-11T10:51:27.713Z,19.91
2022-09-11T10:54:05.642Z,19.93
2022-09-11T10:56:39.334Z,20.04
2022-09-11T10:59:18.036Z,20.10
2022-09-11T11:01:47.396Z,20.33
2022-09-11T11:04:15.251Z,20.61
2022-09-11T11:06:59.653Z,20.74
2022-09-11T11:09:39.899Z,20.75
2022-09-11T11:12:21.737Z,20.84
2022-09-11T11:15:20.174Z,20.95
2022-09-11T11:17:58.757Z,21.04
2022-09-11T11:20:35.507Z,21.08
2022-09-11T11:23:25.451Z,21.21
2022-09-11T11:26:05.567Z,21.29
2022-09-11T11:29:03.197Z,21.35
2022-09-11T11:31:52.667Z,21.64
2022-09-11T11:34:39.914Z,21.92
2022-09-11T11:37:13.266Z,22.17
2022-09-11T11:39:49.193Z,22.18
2022-09-11T11:42:24.420Z,22.11
2022-09-11T11:44:55.333Z,22.11
2022-09-11T11:47:30.021Z,22.14
2022-09-11T11:50:07.182Z,22.05
2022-09-11T11:52:46.271Z,22.11
2022-09-11T11:55:22.455Z,22.18
2022-09-11T11:57:58.745Z,22.16
2022-09-11T12:00:30.011Z,22.29
2022-09-11T12:03:03.365Z,22.40
2022-09-11T12:05:35.050Z,22.48
2022-09-11T12:08:03.612Z,22.57
2022-09-11T12:10:34.685Z,22.61
2022-09-11T12:13:06.767Z,22.70
2022-09-11T12:15:35.931Z,22.85
2022-09-11T12:18:05.543Z,22.92
2022-09-11T12:20:40.665Z,22.86
2022-09-11T12:23:35.953Z,22.88
2022-09-11T12:26:22.217Z,22.78
2022-09-11T12:28:50.728Z,22.88
2022-09-11T12:31:19.469Z,22.97
2022-09-11T12:33:55.595Z,23.05
2022-09-11T12:36:49.658Z,23.06
2022-09-11T12:39:25.446Z,23.14
2022-09-11T12:41:53.421Z,23.08
2022-09-11T12:44:32.654Z,23.06
2022-09-11T12:47:16.832Z,23.13
2022-09-11T12:49:54.760Z,23.27
2022-09-11T12:52:35.904Z,23.28
2022-09-11T12:55:22.735Z,23.30
2022-09-11T12:57:52.252Z,23.33
2022-09-11T13:00:24.532Z,23.38
2022-09-11T13:02:56.946Z,23.30
2022-09-11T13:05:28.344Z,23.25
2022-09-11T13:08:00.892Z,23.28
2022-09-11T13:10:36.368Z,23.31
2022-09-11T13:13:06.492Z,23.42
2022-09-11T13:15:40.981Z,23.55
2022-09-11T13:18:32.258Z,23.68
2022-09-11T13:21:02.518Z,23.86
2022-09-11T13:23:32.815Z,23.93
2022-09-11T13:26:02.861Z,23.85
2022-09-11T13:28:32.136Z,23.94
2022-09-11T13:31:05.091Z,23.99
2022-09-11T13:33:33.803Z,24.13
2022-09-11T13:36:06.113Z,24.21
2022-09-11T13:38:37.416Z,24.20
2022-09-11T13:41:09.072Z,24.30
2022-09-11T13:43:40.128Z,24.41
2022-09-11T13:46:26.860Z,24.47
2022-09-11T13:48:59.267Z,24.64
2022-09-11T13:51:31.265Z,24.64
2022-09-11T13:54:10.197Z,24.68
2022-09-11T13:59:47.633Z,25.02
2022-09-11T14:02:49.480Z,25.12
2022-09-11T14:05:21.978Z,25.25
2022-09-11T14:07:59.969Z,25.36
2022-09-11T14:10:32.533Z,25.52
2022-09-11T14:13:06.501Z,25.72
2022-09-11T14:15:41.048Z,25.79
2022-09-11T14:18:15.140Z,25.89
2022-09-11T14:20:45.919Z,25.84
2022-09-11T14:23:21.144Z,25.85
2022-09-11T14:26:12.617Z,25.90
2022-09-11T14:28:50.436Z,26.04
2022-09-11T14:31:30.286Z,26.12
2022-09-11T14:34:12.680Z,26.14
2022-09-11T14:36:44.171Z,26.15
2022-09-11T14:39:16.702Z,26.16
2022-09-11T14:41:46.623Z,26.09
2022-09-11T14:44:15.724Z,26.15
2022-09-11T14:46:43.985Z,26.21
2022-09-11T14:49:12.934Z,26.29
2022-09-11T14:51:42.399Z,26.24
2022-09-11T14:54:15.877Z,26.34
2022-09-11T14:56:46.604Z,26.47
2022-09-11T14:59:14.417Z,26.43
2022-09-11T15:01:42.864Z,26.36
2022-09-11T15:04:17.030Z,26.39
2022-09-11T15:06:44.957Z,26.33
2022-09-11T15:09:12.751Z,26.37
2022-09-11T15:11:41.632Z,26.34
2022-09-11T15:14:23.359Z,26.33
2022-09-11T15:17:02.025Z,25.93
2022-09-11T15:19:30.836Z,25.67
2022-09-11T15:21:59.117Z,25.72
2022-09-11T15:24:27.366Z,25.81
2022-09-11T15:26:55.474Z,25.92
2022-09-11T15:29:30.760Z,25.95
2022-09-11T15:32:01.267Z,25.99
2022-09-11T15:34:33.207Z,26.01
2022-09-11T15:37:01.201Z,26.06
2022-09-11T15:39:29.302Z,26.04
2022-09-11T15:41:57.851Z,26.06
2022-09-11T15:44:28.706Z,26.08
2022-09-11T15:46:58.626Z,26.03
2022-09-11T15:49:28.981Z,25.91
2022-09-11T15:51:58.367Z,25.89
2022-09-11T15:54:26.775Z,25.86
2022-09-11T15:56:54.736Z,25.91
2022-09-11T15:59:22.683Z,25.86
2022-09-11T16:01:51.985Z,25.88
2022-09-11T16:04:22.888Z,25.90
2022-09-11T16:06:52.135Z,25.93
2022-09-11T16:09:21.961Z,25.93
2022-09-11T16:11:50.371Z,25.93
2022-09-11T16:14:19.024Z,25.91
2022-09-11T16:16:48.093Z,25.75
2022-09-11T16:19:18.557Z,25.67
2022-09-11T16:21:46.659Z,25.60
2022-09-11T16:24:15.500Z,25.58
2022-09-11T16:26:44.162Z,25.55
2022-09-11T16:29:14.692Z,25.53
2022-09-11T16:31:43.628Z,25.45
2022-09-11T16:34:12.101Z,25.40
2022-09-11T16:36:42.574Z,25.37
2022-09-11T16:39:12.983Z,25.33
2022-09-11T16:41:41.247Z,25.27
2022-09-11T16:44:11.987Z,25.24
2022-09-11T16:46:40.792Z,25.20
2022-09-11T16:49:09.010Z,25.16
2022-09-11T16:51:37.295Z,25.09
2022-09-11T16:54:07.809Z,25.05
2022-09-11T16:56:35.683Z,24.97
2022-09-11T16:59:03.618Z,24.92
2022-09-11T17:01:31.749Z,24.89
2022-09-11T17:03:59.591Z,24.85
2022-09-11T17:06:30.184Z,24.79
2022-09-11T17:09:00.258Z,24.73
2022-09-11T17:11:31.452Z,24.65
2022-09-11T17:14:01.876Z,24.58
2022-09-11T17:16:32.257Z,24.51
2022-09-11T17:19:01.717Z,24.44
2022-09-11T17:21:35.729Z,24.37
2022-09-11T17:24:05.153Z,24.29
2022-09-11T17:26:35.637Z,24.17
2022-09-11T17:29:04.710Z,24.09
2022-09-11T17:31:32.956Z,24.03
2022-09-11T17:34:01.095Z,23.98
2022-09-11T17:36:29.284Z,23.92
2022-09-11T17:38:59.458Z,23.83
2022-09-11T17:41:27.274Z,23.73
2022-09-11T17:43:56.716Z,23.68
2022-09-11T17:46:25.535Z,23.59
2022-09-11T17:48:53.420Z,23.54
2022-09-11T17:51:24.655Z,23.48
2022-09-11T17:53:55.387Z,23.40
2022-09-11T17:56:25.856Z,23.32
2022-09-11T17:58:56.723Z,23.25
2022-09-11T18:01:26.043Z,23.19
2022-09-11T18:03:54.868Z,23.12
2022-09-11T18:06:27.843Z,23.05
2022-09-11T18:08:56.707Z,22.97
2022-09-11T18:11:24.706Z,22.91
2022-09-11T18:13:53.051Z,22.85
2022-09-11T18:16:22.451Z,22.78
2022-09-11T18:18:50.426Z,22.69
2022-09-11T18:21:18.214Z,22.61
2022-09-11T18:23:46.588Z,22.57
2022-09-11T18:26:22.006Z,22.47
2022-09-11T18:28:49.989Z,22.42
2022-09-11T18:31:18.310Z,22.37
2022-09-11T18:33:54.596Z,22.30
2022-09-11T18:36:23.505Z,22.25
2022-09-11T18:38:51.735Z,22.18
2022-09-11T18:41:20.188Z,22.13
2022-09-11T18:43:47.997Z,22.08
2022-09-11T18:46:16.388Z,22.01
2022-09-11T18:48:45.054Z,21.94
2022-09-11T18:51:15.296Z,21.88
2022-09-11T18:53:43.929Z,21.82
2022-09-11T18:56:12.485Z,21.79
2022-09-11T18:58:41.832Z,21.74
2022-09-11T19:01:11.522Z,21.68
2022-09-11T19:03:41.783Z,21.62
2022-09-11T19:06:12.110Z,21.56
2022-09-11T19:08:43.388Z,21.50
2022-09-11T19:11:13.330Z,21.45
2022-09-11T19:13:42.242Z,21.38
2022-09-11T19:16:10.936Z,21.33
2022-09-11T19:18:40.130Z,21.27
2022-09-11T19:21:10.278Z,21.22
2022-09-11T19:23:40.220Z,21.16
2022-09-11T19:26:12.192Z,21.12
2022-09-11T19:28:42.193Z,21.07
2022-09-11T19:31:12.122Z,21.02
2022-09-11T19:33:40.663Z,20.98
2022-09-11T19:36:12.356Z,20.94
2022-09-11T19:38:42.010Z,20.85
2022-09-11T19:41:14.091Z,20.79
2022-09-11T19:43:43.154Z,20.76
2022-09-11T19:46:12.946Z,20.72
2022-09-11T19:48:41.562Z,20.69
2022-09-11T19:51:10.761Z,20.63
2022-09-11T19:53:39.199Z,20.59
2022-09-11T19:56:07.425Z,20.53
2022-09-11T19:58:38.780Z,20.49
2022-09-11T20:01:08.980Z,20.45
2022-09-11T20:03:38.499Z,20.40
2022-09-11T20:06:06.817Z,20.36
2022-09-11T20:08:36.097Z,20.33
2022-09-11T20:11:06.364Z,20.28
2022-09-11T20:13:36.909Z,20.24
2022-09-11T20:16:05.677Z,20.19
2022-09-11T20:18:33.635Z,20.14
2022-09-11T20:21:03.063Z,20.11
2022-09-11T20:23:30.827Z,20.05
2022-09-11T20:26:08.378Z,20.00
2022-09-11T20:28:37.688Z,19.97
2022-09-11T20:31:13.725Z,19.91
2022-09-11T20:33:41.877Z,19.89
2022-09-11T20:36:10.161Z,19.84
2022-09-11T20:38:37.897Z,19.81
2022-09-11T20:41:07.807Z,19.77
2022-09-11T20:43:37.071Z,19.73
2022-09-11T20:46:05.782Z,19.69
2022-09-11T20:48:33.972Z,19.66
2022-09-11T20:51:06.560Z,19.61
2022-09-11T20:53:34.324Z,19.57
2022-09-11T20:56:03.416Z,19.55
2022-09-11T20:58:31.223Z,19.51
2022-09-11T21:01:00.871Z,19.46
2022-09-11T21:03:29.645Z,19.39
2022-09-11T21:05:57.543Z,19.35
2022-09-11T21:08:26.380Z,19.33
2022-09-11T21:10:54.163Z,19.30
2022-09-11T21:13:21.946Z,19.30
2022-09-11T21:15:49.689Z,19.25
2022-09-11T21:18:18.773Z,19.23
2022-09-11T21:20:54.084Z,19.16
2022-09-11T21:23:21.927Z,19.12
2022-09-11T21:25:52.656Z,19.12
2022-09-11T21:28:21.100Z,19.09
2022-09-11T21:30:49.137Z,19.06
2022-09-11T21:33:18.855Z,19.03
2022-09-11T21:35:52.368Z,18.99
2022-09-11T21:38:20.903Z,18.94
2022-09-11T21:40:48.826Z,18.90
2022-09-11T21:43:16.675Z,18.87
2022-09-11T21:45:44.429Z,18.84
2022-09-11T21:48:14.745Z,18.82
2022-09-11T21:50:44.184Z,18.80
2022-09-11T21:53:12.797Z,18.76
2022-09-11T21:55:41.024Z,18.73
2022-09-11T21:58:09.183Z,18.70
2022-09-11T22:00:42.777Z,18.67
2022-09-11T22:03:12.571Z,18.65
2022-09-11T22:05:43.394Z,18.62
2022-09-11T22:08:13.781Z,18.59
2022-09-11T22:10:42.977Z,18.57
2022-09-11T22:13:13.827Z,18.53
2022-09-11T22:15:41.853Z,18.49
2022-09-11T22:18:09.952Z,18.49
2022-09-11T22:20:38.512Z,18.46
2022-09-11T22:23:06.949Z,18.41
2022-09-11T22:25:36.901Z,18.39
2022-09-11T22:28:04.855Z,18.37
2022-09-11T22:30:33.446Z,18.34
2022-09-11T22:33:01.458Z,18.32
2022-09-11T22:35:29.754Z,18.29
2022-09-11T22:37:57.431Z,18.26
2022-09-11T22:40:25.208Z,18.24
2022-09-11T22:42:54.349Z,18.21
2022-09-11T22:45:22.153Z,18.19
2022-09-11T22:47:49.948Z,18.17
2022-09-11T22:50:17.938Z,18.13
2022-09-11T22:52:45.767Z,18.11
2022-09-11T22:55:13.468Z,18.09
2022-09-11T22:57:41.311Z,18.07
2022-09-11T23:00:14.392Z,18.04
2022-09-11T23:02:42.518Z,18.02
2022-09-11T23:05:28.348Z,18.01
2022-09-11T23:07:56.028Z,17.98
2022-09-11T23:10:25.043Z,17.95
2022-09-11T23:12:53.550Z,17.92
2022-09-11T23:15:22.913Z,17.90
2022-09-11T23:17:50.609Z,17.87
2022-09-11T23:20:19.127Z,17.84
2022-09-11T23:22:46.890Z,17.83
2022-09-11T23:25:14.840Z,17.81
2022-09-11T23:27:45.335Z,17.80
2022-09-11T23:30:13.541Z,17.78
2022-09-11T23:32:42.629Z,17.76
2022-09-11T23:35:10.780Z,17.73
2022-09-11T23:37:43.524Z,17.72
2022-09-11T23:40:13.168Z,17.69
2022-09-11T23:42:40.976Z,17.68
2022-09-11T23:45:13.522Z,17.66
2022-09-11T23:47:42.637Z,17.63
2022-09-11T23:50:10.718Z,17.60
2022-09-11T23:52:39.511Z,17.57
2022-09-11T23:55:08.350Z,17.55
2022-09-11T23:57:36.168Z,17.52
